sensor_id;sensor_type;location;lat;lon;timestamp;pressure;altitude;pressure_sealevel;temperature;humidity
9899;BME280;4988;49.238;6.698;2023-03-18T00:00:15;98624.50;;;10.50;100.00
9899;BME280;4988;49.238;6.698;2023-03-18T00:02:41;98622.97;;;10.46;100.00
9899;BME280;4988;49.238;6.698;2023-03-18T00:05:08;98629.22;;;10.45;100.00
9899;BME280;4988;49.238;6.698;2023-03-18T00:07:35;98635.41;;;10.45;100.00
9899;BME280;4988;49.238;6.698;2023-03-18T00:10:03;98630.06;;;10.45;100.00
9899;BME280;4988;49.238;6.698;2023-03-18T00:12:29;98636.50;;;10.41;100.00
9899;BME280;4988;49.238;6.698;2023-03-18T00:14:54;98640.28;;;10.37;100.00
9899;BME280;4988;49.238;6.698;2023-03-18T00:17:20;98639.63;;;10.32;100.00
9899;BME280;4988;49.238;6.698;2023-03-18T00:19:45;98640.81;;;10.44;100.00
9899;BME280;4988;49.238;6.698;2023-03-18T00:22:10;98633.16;;;10.38;100.00
9899;BME280;4988;49.238;6.698;2023-03-18T00:24:36;98635.81;;;10.38;100.00
9899;BME280;4988;49.238;6.698;2023-03-18T00:27:02;98646.38;;;10.39;100.00
9899;BME280;4988;49.238;6.698;2023-03-18T00:29:28;98638.59;;;10.35;100.00
9899;BME280;4988;49.238;6.698;2023-03-18T00:31:54;98645.72;;;10.34;100.00
9899;BME280;4988;49.238;6.698;2023-03-18T00:34:21;98648.47;;;10.33;100.00
9899;BME280;4988;49.238;6.698;2023-03-18T00:36:46;98657.88;;;10.22;100.00
9899;BME280;4988;49.238;6.698;2023-03-18T00:39:15;98650.75;;;10.23;100.00
9899;BME280;4988;49.238;6.698;2023-03-18T00:41:42;98645.44;;;10.23;100.00
9899;BME280;4988;49.238;6.698;2023-03-18T00:44:08;98652.72;;;10.19;100.00
9899;BME280;4988;49.238;6.698;2023-03-18T00:46:35;98653.56;;;10.20;100.00
9899;BME280;4988;49.238;6.698;2023-03-18T00:49:04;98647.16;;;10.24;100.00
9899;BME280;4988;49.238;6.698;2023-03-18T00:51:33;98651.84;;;10.19;100.00
9899;BME280;4988;49.238;6.698;2023-03-18T00:54:01;98654.78;;;10.14;100.00
9899;BME280;4988;49.238;6.698;2023-03-18T00:56:28;98654.91;;;10.11;100.00
9899;BME280;4988;49.238;6.698;2023-03-18T00:58:55;98652.88;;;10.16;100.00
9899;BME280;4988;49.238;6.698;2023-03-18T01:01:22;98652.03;;;10.16;100.00
9899;BME280;4988;49.238;6.698;2023-03-18T01:03:48;98643.34;;;10.12;100.00
9899;BME280;4988;49.238;6.698;2023-03-18T01:06:22;98635.53;;;10.09;100.00
9899;BME280;4988;49.238;6.698;2023-03-18T01:08:48;98636.53;;;10.06;100.00
9899;BME280;4988;49.238;6.698;2023-03-18T01:11:14;98639.97;;;10.08;100.00
9899;BME280;4988;49.238;6.698;2023-03-18T01:13:40;98640.31;;;10.02;100.00
9899;BME280;4988;49.238;6.698;2023-03-18T01:16:07;98644.13;;;9.96;100.00
9899;BME280;4988;49.238;6.698;2023-03-18T01:18:33;98640.63;;;9.96;100.00
9899;BME280;4988;49.238;6.698;2023-03-18T01:20:59;98636.41;;;9.92;100.00
9899;BME280;4988;49.238;6.698;2023-03-18T01:23:25;98637.56;;;9.86;100.00
9899;BME280;4988;49.238;6.698;2023-03-18T01:25:50;98639.53;;;9.82;100.00
9899;BME280;4988;49.238;6.698;2023-03-18T01:28:16;98629.06;;;9.79;100.00
9899;BME280;4988;49.238;6.698;2023-03-18T01:30:42;98640.94;;;9.72;100.00
9899;BME280;4988;49.238;6.698;2023-03-18T01:33:07;98636.88;;;9.65;100.00
9899;BME280;4988;49.238;6.698;2023-03-18T01:35:34;98635.31;;;9.61;100.00
9899;BME280;4988;49.238;6.698;2023-03-18T01:38:00;98641.78;;;9.55;100.00
9899;BME280;4988;49.238;6.698;2023-03-18T01:40:27;98639.94;;;9.57;100.00
9899;BME280;4988;49.238;6.698;2023-03-18T01:42:58;98633.03;;;9.53;100.00
9899;BME280;4988;49.238;6.698;2023-03-18T01:45:26;98638.50;;;9.50;100.00
9899;BME280;4988;49.238;6.698;2023-03-18T01:47:53;98629.97;;;9.43;100.00
9899;BME280;4988;49.238;6.698;2023-03-18T01:50:40;98629.03;;;9.44;100.00
9899;BME280;4988;49.238;6.698;2023-03-18T01:53:09;98626.28;;;9.46;100.00
9899;BME280;4988;49.238;6.698;2023-03-18T01:55:35;98628.94;;;9.46;100.00
9899;BME280;4988;49.238;6.698;2023-03-18T01:58:06;98626.78;;;9.37;100.00
9899;BME280;4988;49.238;6.698;2023-03-18T02:00:38;98626.91;;;9.33;100.00
9899;BME280;4988;49.238;6.698;2023-03-18T02:03:06;98633.09;;;9.34;100.00
9899;BME280;4988;49.238;6.698;2023-03-18T02:05:31;98627.88;;;9.32;100.00
9899;BME280;4988;49.238;6.698;2023-03-18T02:07:56;98631.47;;;9.31;100.00
9899;BME280;4988;49.238;6.698;2023-03-18T02:10:25;98633.31;;;9.29;100.00
9899;BME280;4988;49.238;6.698;2023-03-18T02:12:55;98632.38;;;9.30;100.00
9899;BME280;4988;49.238;6.698;2023-03-18T02:15:23;98626.16;;;9.31;100.00
9899;BME280;4988;49.238;6.698;2023-03-18T02:18:07;98621.69;;;9.32;100.00
9899;BME280;4988;49.238;6.698;2023-03-18T02:20:37;98628.50;;;9.38;100.00
9899;BME280;4988;49.238;6.698;2023-03-18T02:28:49;98623.00;;;9.41;100.00
9899;BME280;4988;49.238;6.698;2023-03-18T02:31:16;98622.09;;;9.42;100.00
9899;BME280;4988;49.238;6.698;2023-03-18T02:33:43;98614.28;;;9.39;100.00
9899;BME280;4988;49.238;6.698;2023-03-18T02:36:12;98620.66;;;9.34;100.00
9899;BME280;4988;49.238;6.698;2023-03-18T02:38:40;98617.25;;;9.32;100.00
9899;BME280;4988;49.238;6.698;2023-03-18T02:41:17;98616.28;;;9.33;100.00
9899;BME280;4988;49.238;6.698;2023-03-18T02:43:43;98620.84;;;9.31;100.00
9899;BME280;4988;49.238;6.698;2023-03-18T02:46:28;98611.44;;;9.24;100.00
9899;BME280;4988;49.238;6.698;2023-03-18T02:48:56;98620.22;;;9.26;100.00
9899;BME280;4988;49.238;6.698;2023-03-18T02:51:23;98625.78;;;9.20;100.00
9899;BME280;4988;49.238;6.698;2023-03-18T02:53:49;98632.19;;;9.16;100.00
9899;BME280;4988;49.238;6.698;2023-03-18T02:56:16;98629.03;;;9.08;100.00
9899;BME280;4988;49.238;6.698;2023-03-18T02:58:42;98634.50;;;9.05;100.00
9899;BME280;4988;49.238;6.698;2023-03-18T03:01:08;98638.31;;;8.99;100.00
9899;BME280;4988;49.238;6.698;2023-03-18T03:03:34;98642.06;;;8.95;100.00
9899;BME280;4988;49.238;6.698;2023-03-18T03:06:00;98641.50;;;8.88;100.00
9899;BME280;4988;49.238;6.698;2023-03-18T03:08:26;98643.50;;;8.83;100.00
9899;BME280;4988;49.238;6.698;2023-03-18T03:10:52;98642.78;;;8.79;100.00
9899;BME280;4988;49.238;6.698;2023-03-18T03:13:19;98648.16;;;8.78;100.00
9899;BME280;4988;49.238;6.698;2023-03-18T03:15:44;98653.63;;;8.75;100.00
9899;BME280;4988;49.238;6.698;2023-03-18T03:18:10;98655.31;;;8.76;100.00
9899;BME280;4988;49.238;6.698;2023-03-18T03:20:36;98652.38;;;8.82;100.00
9899;BME280;4988;49.238;6.698;2023-03-18T03:23:05;98654.03;;;8.65;100.00
9899;BME280;4988;49.238;6.698;2023-03-18T03:25:30;98650.53;;;8.65;100.00
9899;BME280;4988;49.238;6.698;2023-03-18T03:27:57;98654.13;;;8.64;100.00
9899;BME280;4988;49.238;6.698;2023-03-18T03:30:22;98654.03;;;8.65;100.00
9899;BME280;4988;49.238;6.698;2023-03-18T03:32:48;98663.72;;;8.66;100.00
9899;BME280;4988;49.238;6.698;2023-03-18T03:35:15;98661.44;;;8.59;100.00
9899;BME280;4988;49.238;6.698;2023-03-18T03:37:42;98671.31;;;8.55;100.00
9899;BME280;4988;49.238;6.698;2023-03-18T03:40:13;98675.69;;;8.56;100.00
9899;BME280;4988;49.238;6.698;2023-03-18T03:42:42;98662.56;;;8.53;100.00
9899;BME280;4988;49.238;6.698;2023-03-18T03:45:10;98681.31;;;8.48;100.00
9899;BME280;4988;49.238;6.698;2023-03-18T03:47:36;98681.44;;;8.45;100.00
9899;BME280;4988;49.238;6.698;2023-03-18T03:50:03;98686.03;;;8.42;100.00
9899;BME280;4988;49.238;6.698;2023-03-18T03:52:30;98684.31;;;8.41;100.00
9899;BME280;4988;49.238;6.698;2023-03-18T03:54:55;98693.19;;;8.40;100.00
9899;BME280;4988;49.238;6.698;2023-03-18T03:57:22;98691.59;;;8.35;100.00
9899;BME280;4988;49.238;6.698;2023-03-18T03:59:49;98696.09;;;8.33;100.00
9899;BME280;4988;49.238;6.698;2023-03-18T04:02:15;98693.38;;;8.35;100.00
9899;BME280;4988;49.238;6.698;2023-03-18T04:04:41;98686.56;;;8.29;100.00
9899;BME280;4988;49.238;6.698;2023-03-18T04:07:06;98698.50;;;8.19;100.00
9899;BME280;4988;49.238;6.698;2023-03-18T04:09:31;98695.19;;;8.14;100.00
9899;BME280;4988;49.238;6.698;2023-03-18T04:11:59;98706.88;;;8.10;100.00
9899;BME280;4988;49.238;6.698;2023-03-18T04:14:24;98701.94;;;8.00;100.00
9899;BME280;4988;49.238;6.698;2023-03-18T04:16:49;98702.09;;;7.97;100.00
9899;BME280;4988;49.238;6.698;2023-03-18T04:19:15;98703.94;;;7.95;100.00
9899;BME280;4988;49.238;6.698;2023-03-18T04:21:41;98714.72;;;7.91;100.00
9899;BME280;4988;49.238;6.698;2023-03-18T04:24:07;98709.75;;;7.83;100.00
9899;BME280;4988;49.238;6.698;2023-03-18T04:26:32;98715.19;;;7.80;100.00
9899;BME280;4988;49.238;6.698;2023-03-18T04:28:58;98717.28;;;7.71;100.00
9899;BME280;4988;49.238;6.698;2023-03-18T04:31:23;98718.31;;;7.67;100.00
9899;BME280;4988;49.238;6.698;2023-03-18T04:33:49;98715.66;;;7.67;100.00
9899;BME280;4988;49.238;6.698;2023-03-18T04:36:14;98709.59;;;7.65;100.00
9899;BME280;4988;49.238;6.698;2023-03-18T04:38:40;98709.84;;;7.59;100.00
9899;BME280;4988;49.238;6.698;2023-03-18T04:41:06;98707.31;;;7.56;100.00
9899;BME280;4988;49.238;6.698;2023-03-18T04:43:31;98705.41;;;7.60;100.00
9899;BME280;4988;49.238;6.698;2023-03-18T04:45:57;98711.63;;;7.59;100.00
9899;BME280;4988;49.238;6.698;2023-03-18T04:48:22;98710.78;;;7.58;100.00
9899;BME280;4988;49.238;6.698;2023-03-18T04:50:48;98710.53;;;7.64;100.00
9899;BME280;4988;49.238;6.698;2023-03-18T04:53:14;98705.06;;;7.67;100.00
9899;BME280;4988;49.238;6.698;2023-03-18T04:55:40;98708.53;;;7.69;100.00
9899;BME280;4988;49.238;6.698;2023-03-18T04:58:05;98712.31;;;7.64;100.00
9899;BME280;4988;49.238;6.698;2023-03-18T05:00:31;98707.44;;;7.53;100.00
9899;BME280;4988;49.238;6.698;2023-03-18T05:02:56;98705.97;;;7.46;100.00
9899;BME280;4988;49.238;6.698;2023-03-18T05:05:21;98698.47;;;7.35;100.00
9899;BME280;4988;49.238;6.698;2023-03-18T05:07:47;98707.63;;;7.26;100.00
9899;BME280;4988;49.238;6.698;2023-03-18T05:10:12;98705.22;;;7.20;100.00
9899;BME280;4988;49.238;6.698;2023-03-18T05:12:38;98707.88;;;7.20;100.00
9899;BME280;4988;49.238;6.698;2023-03-18T05:15:04;98705.66;;;7.09;100.00
9899;BME280;4988;49.238;6.698;2023-03-18T05:17:30;98707.22;;;7.13;100.00
9899;BME280;4988;49.238;6.698;2023-03-18T05:19:55;98711.56;;;7.16;100.00
9899;BME280;4988;49.238;6.698;2023-03-18T05:22:21;98701.63;;;6.99;100.00
9899;BME280;4988;49.238;6.698;2023-03-18T05:24:47;98705.28;;;6.96;100.00
9899;BME280;4988;49.238;6.698;2023-03-18T05:27:14;98705.38;;;6.93;100.00
9899;BME280;4988;49.238;6.698;2023-03-18T05:29:39;98708.16;;;6.90;100.00
9899;BME280;4988;49.238;6.698;2023-03-18T05:32:05;98704.69;;;6.88;100.00
9899;BME280;4988;49.238;6.698;2023-03-18T05:34:32;98703.78;;;6.89;100.00
9899;BME280;4988;49.238;6.698;2023-03-18T05:36:58;98703.78;;;6.89;100.00
9899;BME280;4988;49.238;6.698;2023-03-18T05:39:24;98710.97;;;6.85;100.00
9899;BME280;4988;49.238;6.698;2023-03-18T05:41:49;98709.22;;;6.84;100.00
9899;BME280;4988;49.238;6.698;2023-03-18T05:44:15;98704.25;;;6.76;100.00
9899;BME280;4988;49.238;6.698;2023-03-18T05:46:41;98709.53;;;6.76;100.00
9899;BME280;4988;49.238;6.698;2023-03-18T05:49:07;98704.47;;;6.70;100.00
9899;BME280;4988;49.238;6.698;2023-03-18T05:51:33;98701.00;;;6.68;100.00
9899;BME280;4988;49.238;6.698;2023-03-18T05:53:58;98710.91;;;6.63;100.00
9899;BME280;4988;49.238;6.698;2023-03-18T05:56:24;98708.34;;;6.60;100.00
9899;BME280;4988;49.238;6.698;2023-03-18T05:58:49;98709.47;;;6.54;100.00
9899;BME280;4988;49.238;6.698;2023-03-18T06:01:16;98710.31;;;6.55;100.00
9899;BME280;4988;49.238;6.698;2023-03-18T06:03:41;98706.47;;;6.64;100.00
9899;BME280;4988;49.238;6.698;2023-03-18T06:06:07;98715.22;;;6.66;100.00
9899;BME280;4988;49.238;6.698;2023-03-18T06:08:33;98718.91;;;6.62;100.00
9899;BME280;4988;49.238;6.698;2023-03-18T06:10:59;98715.50;;;6.58;100.00
9899;BME280;4988;49.238;6.698;2023-03-18T06:13:25;98726.78;;;6.63;100.00
9899;BME280;4988;49.238;6.698;2023-03-18T06:15:57;98729.19;;;6.69;100.00
9899;BME280;4988;49.238;6.698;2023-03-18T06:18:23;98726.47;;;6.71;100.00
9899;BME280;4988;49.238;6.698;2023-03-18T06:20:49;98730.09;;;6.68;100.00
9899;BME280;4988;49.238;6.698;2023-03-18T06:23:14;98732.47;;;6.76;100.00
9899;BME280;4988;49.238;6.698;2023-03-18T06:25:40;98730.53;;;6.81;100.00
9899;BME280;4988;49.238;6.698;2023-03-18T06:28:05;98728.59;;;6.85;100.00
9899;BME280;4988;49.238;6.698;2023-03-18T06:30:31;98733.78;;;6.88;100.00
9899;BME280;4988;49.238;6.698;2023-03-18T06:32:58;98738.00;;;6.94;100.00
9899;BME280;4988;49.238;6.698;2023-03-18T06:35:23;98736.88;;;6.99;100.00
9899;BME280;4988;49.238;6.698;2023-03-18T06:37:51;98733.31;;;7.00;100.00
9899;BME280;4988;49.238;6.698;2023-03-18T06:40:18;98738.22;;;7.11;100.00
9899;BME280;4988;49.238;6.698;2023-03-18T06:42:43;98733.38;;;7.22;100.00
9899;BME280;4988;49.238;6.698;2023-03-18T06:45:10;98741.06;;;7.29;100.00
9899;BME280;4988;49.238;6.698;2023-03-18T06:47:35;98743.47;;;7.35;100.00
9899;BME280;4988;49.238;6.698;2023-03-18T06:50:00;98737.81;;;7.44;100.00
9899;BME280;4988;49.238;6.698;2023-03-18T06:52:26;98748.94;;;7.52;100.00
9899;BME280;4988;49.238;6.698;2023-03-18T06:54:52;98744.94;;;7.64;100.00
9899;BME280;4988;49.238;6.698;2023-03-18T06:57:17;98742.91;;;7.71;100.00
9899;BME280;4988;49.238;6.698;2023-03-18T06:59:45;98749.44;;;7.84;100.00
9899;BME280;4988;49.238;6.698;2023-03-18T07:02:11;98750.78;;;7.95;100.00
9899;BME280;4988;49.238;6.698;2023-03-18T07:04:36;98748.66;;;8.03;100.00
9899;BME280;4988;49.238;6.698;2023-03-18T07:07:02;98755.50;;;8.09;100.00
9899;BME280;4988;49.238;6.698;2023-03-18T07:09:28;98759.63;;;8.16;100.00
9899;BME280;4988;49.238;6.698;2023-03-18T07:11:55;98748.75;;;8.22;100.00
9899;BME280;4988;49.238;6.698;2023-03-18T07:14:21;98752.91;;;8.28;100.00
9899;BME280;4988;49.238;6.698;2023-03-18T07:16:47;98753.53;;;8.34;100.00
9899;BME280;4988;49.238;6.698;2023-03-18T07:19:12;98765.44;;;8.45;99.99
9899;BME280;4988;49.238;6.698;2023-03-18T07:21:39;98767.75;;;8.54;95.74
9899;BME280;4988;49.238;6.698;2023-03-18T07:24:07;98775.28;;;8.63;93.47
9899;BME280;4988;49.238;6.698;2023-03-18T07:26:32;98777.38;;;8.76;91.32
9899;BME280;4988;49.238;6.698;2023-03-18T07:28:58;98777.78;;;8.87;91.37
9899;BME280;4988;49.238;6.698;2023-03-18T07:31:23;98779.38;;;8.91;92.78
9899;BME280;4988;49.238;6.698;2023-03-18T07:33:49;98777.66;;;8.90;92.89
9899;BME280;4988;49.238;6.698;2023-03-18T07:36:15;98781.91;;;8.94;93.34
9899;BME280;4988;49.238;6.698;2023-03-18T07:38:40;98788.88;;;8.97;91.84
9899;BME280;4988;49.238;6.698;2023-03-18T07:41:06;98789.59;;;9.00;91.86
9899;BME280;4988;49.238;6.698;2023-03-18T07:43:31;98788.59;;;9.03;82.39
9899;BME280;4988;49.238;6.698;2023-03-18T07:45:57;98794.69;;;9.24;77.02
9899;BME280;4988;49.238;6.698;2023-03-18T07:48:23;98794.63;;;9.45;78.52
9899;BME280;4988;49.238;6.698;2023-03-18T07:50:48;98796.34;;;9.65;77.80
9899;BME280;4988;49.238;6.698;2023-03-18T07:53:13;98802.41;;;9.86;76.64
9899;BME280;4988;49.238;6.698;2023-03-18T07:55:39;98782.88;;;10.05;73.21
9899;BME280;4988;49.238;6.698;2023-03-18T07:58:06;98791.22;;;10.34;70.24
9899;BME280;4988;49.238;6.698;2023-03-18T08:00:33;98799.94;;;10.37;67.76
9899;BME280;4988;49.238;6.698;2023-03-18T08:02:59;98793.28;;;10.46;67.96
9899;BME280;4988;49.238;6.698;2023-03-18T08:05:25;98788.09;;;10.43;67.70
9899;BME280;4988;49.238;6.698;2023-03-18T08:07:51;98789.03;;;10.42;67.63
9899;BME280;4988;49.238;6.698;2023-03-18T08:10:18;98790.13;;;10.38;69.07
9899;BME280;4988;49.238;6.698;2023-03-18T08:12:43;98787.38;;;10.39;67.80
9899;BME280;4988;49.238;6.698;2023-03-18T08:15:09;98783.09;;;10.37;67.06
9899;BME280;4988;49.238;6.698;2023-03-18T08:17:35;98788.28;;;10.40;68.06
9899;BME280;4988;49.238;6.698;2023-03-18T08:20:01;98781.59;;;10.49;65.53
9899;BME280;4988;49.238;6.698;2023-03-18T08:22:26;98786.75;;;10.52;65.15
9899;BME280;4988;49.238;6.698;2023-03-18T08:24:52;98792.63;;;10.58;66.19
9899;BME280;4988;49.238;6.698;2023-03-18T08:27:17;98791.06;;;10.72;64.85
9899;BME280;4988;49.238;6.698;2023-03-18T08:29:43;98797.16;;;10.74;65.44
9899;BME280;4988;49.238;6.698;2023-03-18T08:32:09;98792.63;;;10.76;64.45
9899;BME280;4988;49.238;6.698;2023-03-18T08:34:35;98798.03;;;10.74;63.35
9899;BME280;4988;49.238;6.698;2023-03-18T08:37:00;98795.19;;;10.77;64.08
9899;BME280;4988;49.238;6.698;2023-03-18T08:39:25;98798.56;;;10.81;64.83
9899;BME280;4988;49.238;6.698;2023-03-18T08:41:51;98788.50;;;10.86;64.23
9899;BME280;4988;49.238;6.698;2023-03-18T08:44:16;98781.31;;;10.88;64.74
9899;BME280;4988;49.238;6.698;2023-03-18T08:46:42;98778.50;;;10.91;64.30
9899;BME280;4988;49.238;6.698;2023-03-18T08:49:09;98784.53;;;10.95;64.83
9899;BME280;4988;49.238;6.698;2023-03-18T08:51:34;98786.59;;;11.06;65.70
9899;BME280;4988;49.238;6.698;2023-03-18T08:54:00;98787.75;;;11.18;66.26
9899;BME280;4988;49.238;6.698;2023-03-18T08:56:25;98787.91;;;11.31;65.06
9899;BME280;4988;49.238;6.698;2023-03-18T08:58:51;98795.06;;;11.46;63.61
9899;BME280;4988;49.238;6.698;2023-03-18T09:01:18;98793.59;;;11.56;63.11
9899;BME280;4988;49.238;6.698;2023-03-18T09:03:49;98779.59;;;11.69;62.42
9899;BME280;4988;49.238;6.698;2023-03-18T09:06:16;98772.19;;;11.90;62.33
9899;BME280;4988;49.238;6.698;2023-03-18T09:08:41;98773.19;;;12.03;60.12
9899;BME280;4988;49.238;6.698;2023-03-18T09:11:08;98775.94;;;12.18;62.62
9899;BME280;4988;49.238;6.698;2023-03-18T09:13:34;98782.09;;;12.34;61.25
9899;BME280;4988;49.238;6.698;2023-03-18T09:15:59;98775.16;;;12.46;59.33
9899;BME280;4988;49.238;6.698;2023-03-18T09:18:25;98772.31;;;12.49;58.95
9899;BME280;4988;49.238;6.698;2023-03-18T09:20:51;98771.69;;;12.60;59.68
9899;BME280;4988;49.238;6.698;2023-03-18T09:23:16;98782.25;;;12.62;59.56
9899;BME280;4988;49.238;6.698;2023-03-18T09:25:44;98780.53;;;12.61;59.88
9899;BME280;4988;49.238;6.698;2023-03-18T09:28:09;98775.78;;;12.66;58.00
9899;BME280;4988;49.238;6.698;2023-03-18T09:30:35;98782.66;;;12.70;59.54
9899;BME280;4988;49.238;6.698;2023-03-18T09:33:01;98784.56;;;12.68;59.87
9899;BME280;4988;49.238;6.698;2023-03-18T09:35:27;98782.66;;;12.70;59.58
9899;BME280;4988;49.238;6.698;2023-03-18T09:37:55;98778.63;;;12.77;58.44
9899;BME280;4988;49.238;6.698;2023-03-18T09:40:26;98787.44;;;12.79;58.61
9899;BME280;4988;49.238;6.698;2023-03-18T09:45:24;98794.50;;;12.80;58.01
9899;BME280;4988;49.238;6.698;2023-03-18T09:50:38;98793.06;;;12.89;58.59
9899;BME280;4988;49.238;6.698;2023-03-18T09:55:46;98786.13;;;13.44;57.93
9899;BME280;4988;49.238;6.698;2023-03-18T10:00:54;98785.56;;;13.39;55.70
9899;BME280;4988;49.238;6.698;2023-03-18T10:03:34;98787.41;;;13.66;56.41
9899;BME280;4988;49.238;6.698;2023-03-18T10:06:05;98787.38;;;13.80;53.99
9899;BME280;4988;49.238;6.698;2023-03-18T10:11:31;98783.94;;;14.06;54.49
9899;BME280;4988;49.238;6.698;2023-03-18T10:16:57;98796.69;;;14.02;55.27
9899;BME280;4988;49.238;6.698;2023-03-18T10:19:27;98789.38;;;14.04;54.27
9899;BME280;4988;49.238;6.698;2023-03-18T10:30:26;98789.38;;;14.04;56.21
9899;BME280;4988;49.238;6.698;2023-03-18T10:35:50;98789.47;;;14.30;54.29
9899;BME280;4988;49.238;6.698;2023-03-18T10:38:31;98780.22;;;14.61;55.45
9899;BME280;4988;49.238;6.698;2023-03-18T10:40:58;98788.00;;;14.92;54.83
9899;BME280;4988;49.238;6.698;2023-03-18T10:43:30;98785.84;;;14.97;54.18
9899;BME280;4988;49.238;6.698;2023-03-18T10:46:03;98786.38;;;15.02;53.74
9899;BME280;4988;49.238;6.698;2023-03-18T10:48:32;98786.81;;;14.96;54.05
9899;BME280;4988;49.238;6.698;2023-03-18T10:54:41;98785.47;;;14.63;54.02
9899;BME280;4988;49.238;6.698;2023-03-18T10:56:48;98780.47;;;14.71;54.05
9899;BME280;4988;49.238;6.698;2023-03-18T10:59:15;98785.94;;;14.70;55.71
9899;BME280;4988;49.238;6.698;2023-03-18T11:01:47;98786.69;;;14.72;55.99
9899;BME280;4988;49.238;6.698;2023-03-18T11:04:17;98790.00;;;14.75;55.10
9899;BME280;4988;49.238;6.698;2023-03-18T11:06:48;98792.91;;;14.72;54.72
9899;BME280;4988;49.238;6.698;2023-03-18T11:09:28;98791.88;;;14.60;54.53
9899;BME280;4988;49.238;6.698;2023-03-18T11:12:03;98793.28;;;14.53;53.96
9899;BME280;4988;49.238;6.698;2023-03-18T11:14:30;98798.84;;;14.50;55.59
9899;BME280;4988;49.238;6.698;2023-03-18T11:17:01;98795.06;;;14.67;56.46
9899;BME280;4988;49.238;6.698;2023-03-18T11:19:31;98785.59;;;14.74;55.34
9899;BME280;4988;49.238;6.698;2023-03-18T11:24:38;98779.00;;;14.93;54.75
9899;BME280;4988;49.238;6.698;2023-03-18T11:29:40;98776.19;;;15.07;53.45
9899;BME280;4988;49.238;6.698;2023-03-18T11:32:23;98776.63;;;15.14;54.41
9899;BME280;4988;49.238;6.698;2023-03-18T11:35:04;98773.50;;;15.20;53.85
9899;BME280;4988;49.238;6.698;2023-03-18T11:37:31;98773.16;;;15.25;54.15
9899;BME280;4988;49.238;6.698;2023-03-18T11:42:37;98767.78;;;15.38;54.22
9899;BME280;4988;49.238;6.698;2023-03-18T11:45:21;98767.72;;;15.51;54.26
9899;BME280;4988;49.238;6.698;2023-03-18T11:47:52;98757.75;;;15.53;54.19
9899;BME280;4988;49.238;6.698;2023-03-18T11:50:22;98751.50;;;15.65;56.28
9899;BME280;4988;49.238;6.698;2023-03-18T12:06:18;98743.94;;;16.07;53.91
9899;BME280;4988;49.238;6.698;2023-03-18T12:14:22;98731.94;;;16.00;53.20
9899;BME280;4988;49.238;6.698;2023-03-18T12:30:37;98726.44;;;15.77;53.85
9899;BME280;4988;49.238;6.698;2023-03-18T12:38:55;98713.63;;;15.94;53.09
9899;BME280;4988;49.238;6.698;2023-03-18T12:41:57;98724.69;;;15.89;52.95
9899;BME280;4988;49.238;6.698;2023-03-18T12:50:22;98724.41;;;16.05;53.22
9899;BME280;4988;49.238;6.698;2023-03-18T12:53:00;98724.91;;;16.11;52.61
9899;BME280;4988;49.238;6.698;2023-03-18T12:55:33;98719.25;;;16.02;52.75
9899;BME280;4988;49.238;6.698;2023-03-18T12:58:06;98723.16;;;15.98;51.52
9899;BME280;4988;49.238;6.698;2023-03-18T13:00:48;98725.16;;;16.07;52.16
9899;BME280;4988;49.238;6.698;2023-03-18T13:04:05;98711.59;;;16.09;52.20
9899;BME280;4988;49.238;6.698;2023-03-18T13:06:39;98713.06;;;16.13;51.53
9899;BME280;4988;49.238;6.698;2023-03-18T13:09:26;98704.88;;;16.15;52.44
9899;BME280;4988;49.238;6.698;2023-03-18T13:15:00;98694.81;;;16.30;53.36
9899;BME280;4988;49.238;6.698;2023-03-18T13:17:34;98697.88;;;16.36;53.54
9899;BME280;4988;49.238;6.698;2023-03-18T13:20:10;98707.38;;;16.29;52.54
9899;BME280;4988;49.238;6.698;2023-03-18T13:28:30;98717.34;;;16.16;54.05
9899;BME280;4988;49.238;6.698;2023-03-18T13:41:34;98692.50;;;16.25;52.25
9899;BME280;4988;49.238;6.698;2023-03-18T13:44:09;98687.63;;;16.30;54.04
9899;BME280;4988;49.238;6.698;2023-03-18T13:46:37;98683.84;;;16.33;53.97
9899;BME280;4988;49.238;6.698;2023-03-18T13:49:02;98681.06;;;16.46;54.64
9899;BME280;4988;49.238;6.698;2023-03-18T13:53:55;98676.31;;;16.72;53.64
9899;BME280;4988;49.238;6.698;2023-03-18T13:58:54;98670.97;;;16.95;53.53
9899;BME280;4988;49.238;6.698;2023-03-18T14:06:37;98676.22;;;17.08;51.48
9899;BME280;4988;49.238;6.698;2023-03-18T14:09:45;98674.47;;;17.18;51.83
9899;BME280;4988;49.238;6.698;2023-03-18T14:12:21;98674.22;;;17.32;52.30
9899;BME280;4988;49.238;6.698;2023-03-18T14:22:37;98672.47;;;17.43;51.05
9899;BME280;4988;49.238;6.698;2023-03-18T14:27:49;98679.84;;;17.29;51.27
9899;BME280;4988;49.238;6.698;2023-03-18T14:35:56;98672.66;;;17.30;51.29
9899;BME280;4988;49.238;6.698;2023-03-18T14:38:44;98661.97;;;17.40;50.92
9899;BME280;4988;49.238;6.698;2023-03-18T14:41:24;98662.44;;;17.45;50.00
9899;BME280;4988;49.238;6.698;2023-03-18T14:46:40;98657.06;;;17.45;49.09
9899;BME280;4988;49.238;6.698;2023-03-18T14:49:27;98658.13;;;17.53;48.88
9899;BME280;4988;49.238;6.698;2023-03-18T14:51:57;98660.69;;;17.55;48.93
9899;BME280;4988;49.238;6.698;2023-03-18T14:54:25;98649.81;;;17.57;48.71
9899;BME280;4988;49.238;6.698;2023-03-18T14:56:53;98652.03;;;17.51;49.94
9899;BME280;4988;49.238;6.698;2023-03-18T14:59:22;98645.59;;;17.31;49.13
9899;BME280;4988;49.238;6.698;2023-03-18T15:01:49;98655.13;;;17.47;50.55
9899;BME280;4988;49.238;6.698;2023-03-18T15:04:26;98644.69;;;17.53;50.00
9899;BME280;4988;49.238;6.698;2023-03-18T15:06:54;98651.50;;;17.58;50.28
9899;BME280;4988;49.238;6.698;2023-03-18T15:09:25;98645.31;;;17.46;49.53
9899;BME280;4988;49.238;6.698;2023-03-18T15:11:52;98641.19;;;17.30;49.03
9899;BME280;4988;49.238;6.698;2023-03-18T15:14:29;98641.75;;;17.01;49.77
9899;BME280;4988;49.238;6.698;2023-03-18T15:16:57;98647.13;;;16.90;50.80
9899;BME280;4988;49.238;6.698;2023-03-18T15:19:23;98645.91;;;16.94;51.43
9899;BME280;4988;49.238;6.698;2023-03-18T15:21:49;98641.72;;;17.13;52.03
9899;BME280;4988;49.238;6.698;2023-03-18T15:24:23;98633.88;;;17.32;50.91
9899;BME280;4988;49.238;6.698;2023-03-18T15:27:09;98625.53;;;17.47;49.36
9899;BME280;4988;49.238;6.698;2023-03-18T15:29:44;98627.09;;;17.49;50.38
9899;BME280;4988;49.238;6.698;2023-03-18T15:34:51;98618.16;;;17.49;48.51
9899;BME280;4988;49.238;6.698;2023-03-18T15:39:55;98627.09;;;17.49;48.63
9899;BME280;4988;49.238;6.698;2023-03-18T15:42:23;98619.41;;;17.45;49.63
9899;BME280;4988;49.238;6.698;2023-03-18T15:45:13;98616.94;;;17.42;48.63
9899;BME280;4988;49.238;6.698;2023-03-18T15:47:42;98616.47;;;17.36;49.34
9899;BME280;4988;49.238;6.698;2023-03-18T15:50:29;98624.56;;;17.36;50.00